Date,TemperatureHighF,TemperatureAvgF,TemperatureLowF,DewpointHighF,DewpointAvgF,DewpointLowF,HumidityHigh,HumidityAvg,HumidityLow,PressureMaxIn,PressureMinIn,WindSpeedMaxMPH,WindSpeedAvgMPH,GustSpeedMaxMPH,PrecipitationSumIn
2013-1-1,46,44,39,42,40,37,92,86,80,30.22,30.16,6,4,15,0.02
2013-1-2,54,43,37,44,40,36,96,91,67,30.35,30.19,3,1,7,0.00
2013-1-3,48,45,42,46,44,41,95,94,92,30.44,30.35,3,0,6,0.02
2013-1-4,50,44,38,44,40,37,98,85,67,30.36,30.04,8,3,15,0.00
2013-1-5,48,44,40,42,40,38,94,86,72,30.03,29.81,6,2,13,0.00
2013-1-6,42,40,37,39,35,30,96,85,71,29.90,29.78,10,5,22,0.00
2013-1-7,39,35,33,34,31,26,96,86,68,30.05,29.82,11,5,27,0.00
2013-1-8,34,30,28,28,26,22,95,84,67,30.16,30.05,12,8,36,0.00
2013-1-9,34,30,25,30,26,23,93,82,70,30.25,30.14,6,4,15,0.19
2013-1-10,42,34,24,31,27,22,95,77,60,30.24,30.05,9,3,23,0.52
2013-1-11,48,45,42,45,38,31,92,74,63,30.05,29.87,10,7,24,0.49
2013-1-12,51,46,39,48,44,37,95,93,86,30.05,29.85,9,3,24,0.29
2013-1-13,40,39,37,37,36,35,94,90,85,30.33,30.06,5,2,13,0.23
2013-1-14,50,41,35,40,37,34,96,84,64,30.38,30.32,7,1,12,0.34
2013-1-15,57,48,39,40,37,35,92,66,45,30.33,30.15,5,2,13,0.15
2013-1-16,61,52,46,45,40,35,93,63,46,30.15,29.76,10,3,24,0.06
2013-1-17,57,52,47,49,45,41,92,76,64,29.83,29.63,15,8,32,0.06
2013-1-18,59,55,50,48,44,41,84,68,52,29.81,29.54,12,3,24,0.10
2013-1-19,55,49,45,45,42,40,91,79,60,29.81,29.53,12,8,27,0.14
2013-1-20,58,54,48,51,46,40,79,74,66,29.95,29.81,12,8,25,0.20
2013-1-21,64,59,55,50,46,42,80,64,45,29.94,29.78,10,5,25,0.07
2013-1-22,62,58,52,49,47,41,84,67,52,29.80,29.68,14,6,28,0.06
2013-1-23,58,55,52,50,47,40,88,74,56,29.98,29.77,11,7,24,0.01
2013-1-24,60,53,48,46,44,42,86,72,54,29.98,29.65,6,2,16,0.01
2013-1-25,58,51,42,47,45,41,95,79,58,29.80,29.59,12,6,31,0.33
2013-1-26,45,43,41,45,42,40,98,96,95,29.79,29.69,10,7,22,0.37
2013-1-27,45,38,34,44,37,33,98,96,93,30.01,29.76,13,8,26,0.32
2013-1-28,39,37,36,37,36,34,95,93,91,30.08,29.96,5,3,10,0.10
2013-1-29,38,37,35,36,35,32,95,92,87,30.16,30.08,5,2,11,0.11
2013-1-30,42,37,32,36,33,30,92,86,72,30.13,30.02,3,1,7,0.10
2013-1-31,44,39,32,40,36,30,95,90,73,30.03,29.86,9,4,22,0.38
2013-2-1,49,45,37,42,39,35,94,80,63,30.02,29.90,11,5,24,0.08
2013-2-2,57,51,44,48,39,29,86,65,37,29.93,29.76,15,6,36,0.01
2013-2-3,67,62,57,48,46,44,71,56,46,29.92,29.79,18,11,35,0.00
2013-2-4,63,57,46,48,44,42,95,64,49,30.05,29.93,10,6,21,0.02
2013-2-5,51,45,43,48,41,32,96,86,51,30.14,29.89,8,4,14,0.19
2013-2-6,58,48,43,48,45,41,97,88,68,29.89,29.71,6,2,13,0.00
2013-2-7,64,57,51,50,47,45,83,69,51,29.77,29.68,17,5,29,0.04
2013-2-8,59,51,48,46,44,40,91,77,51,29.77,29.64,13,5,29,0.28
2013-2-9,55,50,46,47,45,43,95,83,64,29.96,29.77,9,4,22,0.03
2013-2-10,52,48,46,47,45,44,95,91,82,29.97,29.84,6,2,12,0.04
2013-2-11,48,43,41,45,42,38,97,94,87,30.07,29.83,8,4,17,0.02
2013-2-12,53,44,36,41,38,34,94,82,55,30.16,30.07,5,1,12,0.01
2013-2-13,57,45,40,44,37,-100,95,79,51,30.13,30.06,3,1,8,0.00
2013-2-14,47,45,43,44,42,39,97,92,74,30.06,29.82,8,5,17,0.02
2013-2-15,46,43,39,44,41,36,97,94,87,30.06,29.76,12,8,23,0.05
2013-2-16,39,38,37,36,33,-100,91,84,79,30.18,30.06,7,3,14,0.05
2013-2-17,40,39,38,35,34,32,84,81,76,30.17,30.12,7,4,17,0.01
2013-2-18,43,40,38,35,33,-100,88,78,67,30.16,30.11,7,4,15,0.02
2013-2-19,48,40,34,36,34,30,93,77,50,30.15,29.84,7,3,18,0.08
2013-2-20,43,37,37,40,26,-100,95,84,81,30.14,29.81,8,3,17,0.06
2013-2-21,48,41,35,40,38,34,96,88,72,30.14,29.98,3,0,6,0.04
2013-2-22,49,44,42,46,38,-100,95,88,85,30.00,29.72,5,1,10,0.13
2013-2-23,52,46,45,49,41,-100,100,91,89,30.14,29.73,4,1,7,0.23
2013-2-24,54,46,43,48,44,42,98,93,73,30.24,30.14,7,3,14,0.00
2013-2-25,46,41,41,45,36,-100,99,94,96,30.25,30.17,9,4,18,0.00
2013-2-26,46,44,43,45,44,43,99,98,95,30.17,30.06,8,5,19,0.00
2013-2-27,48,44,42,45,43,39,98,94,88,30.08,30.03,8,4,17,0.07
2013-2-28,44,42,37,42,40,35,96,92,86,30.23,30.07,11,5,21,0.10
2013-3-1,50,41,33,39,34,28,96,79,43,30.21,30.02,5,2,12,0.09
2013-3-2,54,43,40,44,32,-100,91,76,64,30.13,29.98,8,4,17,0.00
2013-3-3,46,40,40,41,28,-100,91,77,74,30.14,29.95,12,7,26,0.00
2013-3-4,49,41,34,40,33,-100,93,78,55,30.25,29.98,8,3,16,0.00
2013-3-5,43,37,34,40,22,-100,93,68,54,30.51,30.25,10,5,21,0.00
2013-3-6,55,41,31,33,25,-100,84,58,21,30.51,30.17,5,1,10,0.00
2013-3-7,59,54,45,39,33,29,69,46,32,30.17,29.97,7,3,14,0.00
2013-3-8,61,56,51,50,42,-100,94,63,49,29.97,29.83,10,5,20,0.04
2013-3-9,62,55,52,52,47,-100,93,78,69,29.84,29.75,12,7,25,0.04
2013-3-10,66,58,54,54,49,-100,86,72,56,29.76,29.67,12,7,26,0.02
2013-3-11,67,61,56,53,50,48,85,69,58,29.72,29.55,9,5,18,0.00
2013-3-12,66,59,52,54,51,46,92,77,52,29.63,29.53,9,4,18,0.06
2013-3-13,66,59,53,49,47,45,80,65,50,29.76,29.62,13,7,26,0.00
2013-3-14,73,65,57,48,45,39,70,50,32,29.75,29.35,8,4,17,0.00
2013-3-15,69,58,50,54,46,-100,92,69,35,29.60,29.34,19,7,41,0.58
2013-3-16,50,37,33,46,33,-100,96,92,86,30.04,29.59,13,7,27,0.17
2013-3-17,40,37,35,36,33,-100,94,89,84,30.24,30.04,7,3,14,0.20
2013-3-18,52,40,31,40,34,28,97,81,41,30.25,29.95,5,1,11,0.77
2013-3-19,62,53,42,47,39,-100,90,63,46,29.94,29.72,14,7,27,0.00
2013-3-20,59,53,48,51,46,-100,92,79,68,29.99,29.83,7,2,16,0.00
2013-3-21,71,59,49,49,41,-100,90,58,38,29.95,29.53,6,2,14,0.00
2013-3-22,64,49,41,49,40,-100,94,79,41,29.60,29.45,10,4,23,0.29
2013-3-23,49,43,40,39,36,35,90,78,60,29.99,29.61,6,3,14,0.16
2013-3-24,58,44,38,44,34,-100,93,78,46,30.10,29.99,6,1,14,0.04
2013-3-25,49,45,44,44,41,-100,95,89,83,30.06,29.74,10,7,20,0.00
2013-3-26,66,51,45,50,46,44,97,84,47,29.75,29.55,9,4,19,0.00
2013-3-27,47,42,43,46,36,-100,97,91,95,29.91,29.63,6,4,17,0.02
2013-3-28,45,42,42,44,34,-100,98,87,86,30.20,29.90,9,6,16,0.02
2013-3-29,51,45,41,44,41,38,94,86,74,30.20,30.04,9,4,16,0.00
2013-3-30,74,59,44,54,49,43,95,74,44,30.04,29.89,7,2,16,0.02
2013-3-31,81,70,59,52,48,43,76,48,27,29.89,29.75,7,2,17,0.01
2013-4-1,70,64,59,53,50,46,75,63,43,29.82,29.75,6,2,19,0.01
2013-4-2,70,59,55,50,35,-100,84,50,29,29.91,29.79,9,4,17,0.00
2013-4-3,72,62,56,56,50,43,95,65,43,29.79,29.55,9,2,19,0.14
2013-4-4,64,58,53,54,51,49,94,80,59,29.93,29.64,9,4,20,0.11
2013-4-5,69,59,51,51,43,-100,91,63,38,30.00,29.79,8,3,17,0.00
2013-4-6,76,68,59,51,47,42,71,48,30,29.85,29.77,9,3,19,0.00
2013-4-7,63,55,49,52,46,-100,94,76,60,29.84,29.53,13,6,28,0.00
2013-4-8,49,46,44,47,45,42,98,96,93,29.94,29.57,11,7,22,0.02
2013-4-9,48,44,43,42,38,-100,94,85,81,30.02,29.93,6,4,14,0.02
2013-4-10,62,52,44,48,45,42,95,80,56,30.03,29.92,6,2,14,0.00
2013-4-11,59,52,47,52,47,-100,93,84,75,30.08,29.92,6,2,16,0.01
2013-4-12,69,57,45,50,44,40,96,66,38,30.10,30.05,4,1,11,0.00
2013-4-13,74,63,50,47,43,39,73,49,33,30.10,30.03,8,3,17,0.00
2013-4-14,63,55,49,54,50,47,97,86,56,30.18,30.07,8,4,16,0.00
2013-4-15,50,48,48,48,44,-100,97,93,92,30.15,30.00,12,7,26,0.00
2013-4-16,49,45,46,48,39,-100,98,90,90,30.02,29.93,13,7,28,0.02
2013-4-17,50,48,46,46,44,41,94,85,72,30.15,30.02,12,7,29,0.00
2013-4-18,53,48,46,45,44,38,94,85,58,30.13,30.06,11,5,19,0.00
2013-4-19,52,48,44,47,44,41,97,88,69,30.05,29.98,13,5,21,0.00
2013-4-20,53,48,46,47,43,-100,95,86,77,30.03,29.95,7,4,14,0.00
2013-4-21,59,50,46,50,43,-100,95,83,64,30.02,29.95,8,3,17,0.00
2013-4-22,58,50,45,51,46,-100,96,88,72,30.17,30.00,9,3,18,0.00
2013-4-23,57,48,43,46,39,-100,97,77,61,30.28,30.17,7,3,14,0.00
2013-4-24,73,58,42,50,44,40,94,64,34,30.36,30.27,6,1,12,0.00
2013-4-25,77,64,51,52,48,44,85,58,33,30.32,30.18,4,1,10,0.00
2013-4-26,78,67,53,52,48,45,85,55,35,30.19,30.05,6,2,11,0.00
2013-4-27,82,68,53,53,47,-100,82,51,26,30.05,29.94,4,1,9,0.00
2013-4-28,83,71,56,55,47,23,85,47,11,30.08,29.97,9,3,18,0.00
2013-4-29,83,66,58,56,49,-100,91,59,32,30.18,30.08,6,2,13,0.00
2013-4-30,68,61,56,59,56,54,96,86,72,30.20,30.14,8,4,16,0.00
2013-5-1,68,60,55,59,57,54,97,89,72,30.14,30.05,8,5,16,0.00
2013-5-2,66,59,55,59,56,54,97,91,78,30.08,30.00,9,5,18,0.00
2013-5-3,61,57,54,57,55,54,98,91,84,30.01,29.91,8,5,17,0.00
2013-5-4,73,58,54,60,51,-100,99,83,61,29.98,29.90,5,2,9,0.00
2013-5-5,70,61,55,60,55,-100,98,85,70,30.11,29.97,9,3,20,0.00
2013-5-6,68,62,58,61,59,57,98,91,75,30.17,30.11,10,5,18,0.00
2013-5-7,62,60,58,58,57,56,94,91,84,30.12,30.01,11,6,26,0.00
2013-5-8,62,59,57,58,56,54,94,91,85,30.00,29.91,12,8,28,0.00
2013-5-9,59,58,57,57,56,54,95,92,89,29.98,29.92,7,4,16,0.00
2013-5-10,65,57,55,59,52,-100,96,88,80,29.96,29.90,7,4,14,0.00
2013-5-11,70,60,54,58,55,48,96,84,47,29.90,29.76,6,2,14,0.00
2013-5-12,74,62,53,59,53,-100,96,76,47,29.77,29.67,6,2,13,0.00
2013-5-13,73,65,62,60,58,56,86,77,60,29.72,29.64,6,2,14,0.03
2013-5-14,63,61,60,59,58,57,92,88,79,29.82,29.66,8,4,16,0.05
2013-5-15,70,60,58,58,48,-100,96,72,52,29.91,29.81,5,2,11,0.89
2013-5-16,79,68,56,59,54,48,93,65,36,29.93,29.89,7,2,15,0.38
2013-5-17,81,73,62,61,56,52,91,59,38,29.94,29.84,6,2,14,0.11
2013-5-18,82,74,66,62,59,55,78,59,47,30.00,29.89,6,3,16,0.00
2013-5-19,82,72,63,64,61,58,89,70,46,30.00,29.94,5,2,13,0.00
2013-5-20,79,71,60,62,59,52,92,68,39,29.99,29.93,6,2,12,0.00
2013-5-21,75,68,62,63,59,55,89,72,57,29.99,29.93,6,3,14,0.00
2013-5-22,88,73,59,62,57,-100,94,62,32,29.94,29.78,5,1,12,0.00
2013-5-23,92,80,67,60,54,48,76,44,25,29.79,29.56,17,6,37,0.01
2013-5-24,77,74,69,56,53,47,57,48,39,29.86,29.66,17,8,35,0.00
2013-5-25,81,73,65,56,53,48,74,51,36,29.91,29.84,8,5,18,0.00
2013-5-26,83,68,64,57,42,-100,78,46,33,29.91,29.80,10,4,22,0.00
2013-5-27,72,63,61,57,50,-100,81,66,46,29.98,29.82,9,4,18,0.00
2013-5-28,78,68,58,58,50,35,89,58,23,30.00,29.93,5,2,14,0.00
2013-5-29,79,70,60,59,53,47,74,58,40,29.94,29.65,8,2,16,0.00
2013-5-30,84,73,62,66,61,58,96,68,47,29.70,29.64,9,3,19,0.00
2013-5-31,85,76,66,61,55,46,78,50,34,29.74,29.61,12,4,25,0.00
2013-6-1,81,69,60,61,52,-100,92,61,29,29.84,29.75,6,2,15,0.00
2013-6-2,68,64,62,62,58,55,90,80,64,29.83,29.64,7,2,18,0.19
2013-6-3,73,65,57,58,51,-100,87,66,48,29.88,29.73,6,3,17,0.00
2013-6-4,72,66,58,61,57,53,87,75,55,29.92,29.86,8,3,17,0.00
2013-6-5,76,65,61,63,56,-100,95,77,55,29.98,29.90,6,2,12,0.10
2013-6-6,75,66,62,62,59,54,91,79,56,30.02,29.98,5,1,12,0.00
2013-6-7,78,66,59,64,56,-100,95,76,46,30.00,29.92,5,2,13,0.00
2013-6-8,71,65,60,64,58,-100,92,82,76,29.92,29.84,11,4,22,0.00
2013-6-9,72,68,64,64,62,60,93,83,68,29.98,29.88,10,4,20,0.00
2013-6-10,77,70,61,63,59,49,96,71,38,29.99,29.88,6,2,14,0.00
2013-6-11,81,71,60,60,55,47,85,59,31,29.91,29.74,7,3,15,0.00
2013-6-12,72,68,65,66,64,59,93,87,73,29.82,29.69,16,4,28,0.03
2013-6-13,74,68,66,67,62,-100,97,87,74,29.83,29.73,8,3,17,0.05
2013-6-14,73,68,65,66,64,60,96,89,67,29.90,29.81,7,2,14,0.13
2013-6-15,76,70,64,66,64,63,96,83,65,29.91,29.88,6,2,14,0.41
2013-6-16,81,74,64,68,65,62,93,76,56,29.96,29.90,7,2,15,0.08
2013-6-17,78,72,66,68,65,-100,97,80,67,30.01,29.93,8,3,18,0.16
2013-6-18,79,72,66,69,65,-100,93,80,71,30.05,29.99,10,4,20,0.00
2013-6-19,77,72,67,67,62,-100,95,76,52,30.03,30.00,11,5,22,0.00
2013-6-20,75,72,68,68,66,64,95,83,67,30.08,30.00,11,6,22,0.00
2013-6-21,76,72,67,66,64,59,91,77,59,30.07,30.00,11,6,27,0.00
2013-6-22,76,71,65,66,61,-100,93,74,55,30.02,29.93,10,5,21,0.00
2013-6-23,77,70,66,68,61,-100,92,77,61,29.94,29.82,9,4,19,0.00
2013-6-24,79,73,67,70,67,63,96,84,61,29.83,29.79,9,5,18,0.00
2013-6-25,80,74,69,72,67,-100,96,84,70,29.86,29.79,9,4,18,0.00
2013-6-26,79,74,70,69,68,64,94,81,62,29.95,29.86,12,7,24,0.00
2013-6-27,79,74,71,71,67,-100,92,83,64,29.96,29.89,11,6,22,0.00
2013-6-28,74,72,71,71,68,-100,93,89,85,29.92,29.87,10,6,21,0.00
2013-6-29,76,73,72,71,67,-100,93,83,73,29.90,29.75,9,6,18,0.00
2013-6-30,78,73,69,71,68,64,95,84,66,29.75,29.66,8,3,19,0.00
2013-7-1,73,67,64,65,57,-100,89,75,63,30.02,29.75,9,4,19,0.06
2013-7-2,73,69,64,62,59,56,87,72,56,30.06,30.01,10,4,18,0.00
2013-7-3,75,68,59,62,58,56,94,71,55,30.04,29.96,8,3,18,0.00
2013-7-4,76,68,59,65,59,-100,90,74,57,29.97,29.93,8,3,17,0.00
2013-7-5,74,70,67,68,64,-100,92,83,71,29.95,29.91,11,6,23,0.00
2013-7-6,76,72,70,70,67,-100,92,87,77,29.95,29.89,13,7,27,0.00
2013-7-7,78,72,71,71,66,-100,95,85,69,30.01,29.94,10,6,21,0.00
2013-7-8,79,74,72,72,69,-100,94,87,75,30.05,30.00,10,6,22,0.00
2013-7-9,76,73,72,72,71,70,95,93,88,30.03,30.00,7,5,14,0.00
2013-7-10,78,74,72,72,70,69,94,89,79,29.94,29.78,11,8,23,0.04
2013-7-11,77,74,72,72,71,70,95,89,82,29.85,29.76,11,7,23,0.16
2013-7-12,79,75,71,71,69,61,94,84,54,29.93,29.85,9,5,18,0.00
2013-7-13,78,72,69,70,65,-100,96,84,73,29.95,29.92,10,4,18,0.00
2013-7-14,78,74,69,70,66,62,95,79,59,29.94,29.91,8,3,19,0.00
2013-7-15,77,73,66,69,67,62,95,82,73,29.94,29.91,11,5,22,0.00
2013-7-16,76,72,69,68,64,-100,89,78,71,30.00,29.92,11,6,23,0.00
2013-7-17,76,70,72,68,59,-100,86,74,65,30.03,29.98,13,9,25,0.00
2013-7-18,77,69,71,67,57,-100,86,73,67,30.06,30.00,12,7,24,0.00
2013-7-19,77,70,69,68,59,-100,93,76,67,30.05,29.93,10,5,21,0.00
2013-7-20,78,74,68,69,68,66,95,82,72,29.93,29.88,9,6,19,0.00
2013-7-21,78,73,67,70,67,60,96,82,54,30.00,29.88,11,5,25,0.00
2013-7-22,75,72,68,63,59,57,77,64,56,30.00,29.94,11,7,24,0.00
2013-7-23,77,72,64,64,62,59,89,71,60,29.94,29.90,8,3,19,0.00
2013-7-24,84,75,65,66,59,52,82,59,35,29.96,29.90,8,3,17,0.00
2013-7-25,89,79,66,66,58,52,82,53,32,29.96,29.88,5,2,12,0.00
2013-7-26,82,75,68,71,64,-100,91,70,51,29.94,29.91,7,3,16,0.00
2013-7-27,80,74,68,69,66,64,94,78,58,29.99,29.91,8,3,18,0.00
2013-7-28,79,74,65,67,64,58,93,72,50,30.08,29.98,9,4,19,0.00
2013-7-29,81,73,66,67,61,-100,93,72,49,30.08,29.97,7,3,15,0.00
2013-7-30,90,76,67,62,51,-100,73,48,28,29.97,29.80,7,2,14,0.00
2013-7-31,81,71,74,72,56,-100,90,72,56,29.87,29.80,8,4,19,0.01
2013-8-1,76,72,69,71,68,65,94,87,73,29.99,29.86,7,4,18,1.18
2013-8-2,79,74,69,71,69,67,96,85,72,30.02,29.98,11,4,20,0.00
2013-8-3,80,75,69,71,66,62,96,75,59,30.02,29.99,8,3,17,0.00
2013-8-4,81,74,67,71,64,-100,84,74,65,30.07,29.95,12,5,23,0.00
2013-8-5,78,74,71,68,63,-100,80,70,57,30.08,30.01,11,6,24,0.00
2013-8-6,80,75,71,70,67,63,85,76,58,30.03,29.96,11,6,21,0.00
2013-8-7,79,73,71,70,62,-100,88,74,60,30.03,29.94,10,5,24,0.00
2013-8-8,80,76,71,71,69,64,96,81,59,30.05,30.01,11,5,21,0.00
2013-8-9,81,75,72,73,69,-100,95,84,67,30.01,29.90,11,5,23,0.00
2013-8-10,84,76,74,72,65,-100,91,73,46,29.89,29.76,13,7,28,0.00
2013-8-11,79,72,74,71,60,-100,89,74,68,29.87,29.75,12,7,24,0.00
2013-8-12,83,74,70,72,64,-100,95,79,53,29.97,29.87,9,3,18,0.00
2013-8-13,83,76,70,72,69,63,96,80,52,29.97,29.93,9,4,19,0.00
2013-8-14,81,76,72,74,70,-100,94,85,69,29.93,29.91,12,5,23,0.00
2013-8-15,81,77,74,73,72,70,92,84,72,29.98,29.90,12,6,22,0.00
2013-8-16,81,76,75,75,70,-100,93,85,79,29.98,29.94,14,8,28,0.00
2013-8-17,79,76,74,73,68,-100,88,79,69,30.00,29.94,15,10,28,0.00
2013-8-18,80,76,71,71,67,62,88,74,59,30.00,29.95,7,4,18,0.00
2013-8-19,81,77,73,73,71,69,91,84,68,30.01,29.96,11,6,22,0.00
2013-8-20,80,77,73,73,72,69,96,85,74,29.98,29.94,11,5,20,0.00
2013-8-21,81,75,74,70,63,-100,82,68,55,29.99,29.94,13,8,29,0.00
2013-8-22,80,76,73,71,66,62,85,70,58,29.95,29.90,11,7,23,0.00
2013-8-23,80,76,73,71,69,68,90,79,68,29.94,29.90,9,5,22,0.00
2013-8-24,81,75,71,72,68,-100,93,82,68,29.94,29.90,10,4,20,0.00
2013-8-25,78,75,70,71,70,68,94,84,74,29.92,29.88,10,5,22,0.00
2013-8-26,81,75,70,71,69,66,95,82,60,29.92,29.88,9,4,19,0.00
2013-8-27,82,75,69,72,68,-100,96,84,69,29.93,29.88,8,3,17,0.00
2013-8-28,82,75,71,72,71,69,94,86,71,29.92,29.88,7,3,13,0.00
2013-8-30,77,70,71,71,60,-100,93,77,67,30.00,29.92,11,6,24,0.00
2013-8-31,75,71,67,64,61,58,85,71,59,30.06,29.98,10,5,21,0.08
2013-9-1,76,68,63,61,53,-100,80,64,48,30.09,30.05,10,4,21,0.00
2013-9-2,76,71,63,64,60,58,88,69,54,30.09,30.05,9,3,18,0.00
2013-9-3,82,71,62,63,57,-100,91,65,45,30.08,29.96,7,2,15,0.00
2013-9-4,72,69,62,62,56,49,86,65,44,30.14,29.99,11,4,22,0.13
2013-9-5,72,66,59,62,55,52,95,70,50,30.15,30.03,7,2,18,0.70
2013-9-6,79,69,58,58,52,47,80,57,35,30.03,29.94,7,2,16,0.00
2013-9-7,76,68,62,58,51,-100,77,59,40,30.09,30.00,8,3,19,0.00
2013-9-8,74,65,59,60,52,-100,86,67,49,30.18,30.08,10,3,20,0.00
2013-9-9,73,68,62,59,56,51,86,68,49,30.20,30.14,8,3,17,0.00
2013-9-10,80,68,60,58,55,48,86,65,34,30.14,30.05,7,2,15,0.00
2013-9-11,80,71,61,62,58,53,89,64,41,30.07,29.96,6,2,13,0.00
2013-9-12,87,70,64,69,52,-100,82,61,36,29.98,29.90,6,2,13,0.00
2013-9-13,86,74,67,68,61,-100,88,68,46,29.92,29.86,9,3,21,0.00
2013-9-14,75,68,62,67,58,50,92,74,46,30.00,29.84,8,3,20,0.12
2013-9-15,77,69,60,60,55,49,87,63,42,29.99,29.88,10,3,20,0.00
2013-9-16,80,71,66,63,56,-100,85,65,29,29.90,29.69,6,2,14,0.00
2013-9-17,78,72,68,64,61,56,83,69,48,29.70,29.64,6,2,13,0.00
2013-9-18,75,68,64,64,59,-100,88,77,63,29.70,29.60,7,4,16,0.04
2013-9-19,80,66,61,62,52,-100,92,68,37,29.77,29.69,6,2,12,0.00
2013-9-20,68,64,62,61,54,-100,82,71,62,30.02,29.74,9,4,19,0.02
2013-9-21,69,63,58,55,51,48,77,65,49,30.08,30.02,7,2,15,0.00
2013-9-22,66,61,55,58,54,51,88,78,67,30.11,30.06,10,3,21,0.25
2013-9-23,70,64,57,59,54,51,92,72,53,30.08,29.88,6,2,16,0.14
2013-9-24,71,66,62,58,51,-100,72,62,53,29.94,29.84,7,3,17,0.00
2013-9-25,79,66,60,59,49,-100,84,59,42,30.04,29.93,9,2,21,0.00
2013-9-26,82,72,60,61,54,47,85,55,31,30.03,29.88,8,3,19,0.00
2013-9-27,77,69,63,66,62,57,90,79,52,30.02,29.86,9,4,19,0.06
2013-9-28,75,65,60,60,57,-100,93,78,47,30.00,29.94,6,2,13,0.03
2013-9-29,74,66,60,64,59,-100,94,82,66,30.00,29.91,5,2,11,0.00
2013-9-30,80,68,63,64,62,56,93,82,44,29.92,29.70,6,3,14,0.00
2013-10-1,75,68,56,63,59,53,92,76,49,29.70,29.53,11,5,25,0.24
2013-10-2,57,54,50,56,51,48,95,92,85,30.04,29.68,8,6,22,0.92
2013-10-3,52,49,45,48,43,38,92,81,64,30.29,30.04,8,5,24,0.27
2013-10-4,48,46,42,42,39,38,90,78,67,30.40,30.27,8,5,21,0.54
2013-10-5,52,48,44,40,38,35,85,68,58,30.39,30.33,8,4,17,0.02
2013-10-6,55,49,44,46,41,-100,90,77,66,30.40,30.29,6,2,14,0.00
2013-10-7,59,53,47,45,43,41,86,70,53,30.44,30.38,8,3,19,0.00
2013-10-8,62,55,46,51,48,43,91,78,63,30.42,30.36,10,3,19,0.00
2013-10-9,64,58,54,56,53,50,93,83,65,30.36,30.17,8,3,14,0.00
2013-10-10,72,60,52,59,49,-100,97,73,47,30.16,30.07,6,2,14,0.00
2013-10-11,77,66,56,60,56,50,84,70,53,30.19,30.11,6,2,12,0.00
2013-10-12,71,64,60,63,60,57,95,87,76,30.27,30.19,7,3,14,0.00
2013-10-13,63,59,59,58,52,-100,92,86,83,30.27,30.22,8,4,16,0.00
2013-10-14,66,59,55,58,52,-100,95,85,73,30.24,30.18,7,2,17,0.00
2013-10-15,75,60,54,58,50,-100,96,77,36,30.19,29.98,3,1,7,0.02
2013-10-16,74,64,56,60,56,53,94,76,50,29.98,29.63,8,2,23,0.05
2013-10-17,67,59,55,61,55,-100,96,90,75,29.64,29.43,8,3,20,1.03
2013-10-18,60,56,54,57,50,-100,97,86,75,29.97,29.60,13,5,27,1.04
2013-10-19,60,55,54,52,44,-100,88,76,69,30.42,29.97,7,2,15,0.03
2013-10-20,61,54,49,52,43,-100,93,73,47,30.49,30.39,6,2,13,0.03
2013-10-21,68,55,45,50,42,-100,92,67,30,30.39,30.22,4,1,10,0.00
2013-10-22,69,58,51,57,50,-100,96,79,61,30.22,30.16,5,1,11,0.03
2013-10-23,63,59,56,58,56,54,96,90,80,30.33,30.22,9,4,18,0.01
2013-10-24,62,58,56,56,53,50,93,84,72,30.33,30.27,11,6,22,0.02
2013-10-25,60,57,53,52,50,49,88,79,71,30.27,30.21,8,4,16,0.03
2013-10-26,62,57,52,54,52,49,94,83,67,30.27,30.22,8,2,16,0.00
2013-10-27,62,55,52,54,49,-100,95,85,73,30.24,30.13,6,2,11,0.02
2013-10-28,68,59,51,57,54,50,97,85,56,30.13,30.06,6,2,12,0.01
2013-10-29,72,60,54,60,54,-100,97,85,63,30.09,30.03,4,1,8,0.00
2013-10-30,60,57,55,56,54,53,97,92,85,30.15,30.07,9,4,17,0.00
2013-10-31,60,57,56,56,52,-100,92,87,80,30.30,30.15,10,6,20,0.00
2013-11-1,61,59,57,55,54,53,89,84,76,30.29,30.20,8,5,19,0.00
2013-11-2,63,58,57,56,53,-100,92,86,75,30.20,30.11,5,2,11,0.00
2013-11-3,61,59,57,56,55,54,93,89,82,30.11,30.03,7,3,16,0.00
2013-11-4,70,62,58,57,54,-100,92,78,57,30.08,29.98,8,4,15,0.00
2013-11-5,72,66,58,56,53,47,88,65,45,29.99,29.85,10,5,24,0.00
2013-11-6,75,67,61,54,50,47,72,55,38,29.85,29.76,8,3,19,0.00
2013-11-7,64,54,48,55,48,-100,95,84,60,30.16,29.79,8,2,19,0.80
2013-11-8,60,48,47,53,35,-100,97,76,55,30.23,30.16,5,1,12,0.01
2013-11-9,65,54,49,52,46,-100,93,80,48,30.19,30.06,6,1,12,0.00
2013-11-10,67,57,46,51,46,42,94,69,41,30.05,29.93,5,1,10,0.00
2013-11-11,70,60,54,47,43,-100,71,54,34,30.13,29.92,4,1,11,0.00
2013-11-12,67,59,54,57,50,42,93,73,53,30.24,30.12,7,3,18,0.00
2013-11-13,57,55,54,54,52,49,94,87,80,30.24,30.13,8,5,19,0.00
2013-11-14,56,54,53,51,48,-100,90,82,79,30.14,30.07,10,6,22,0.00
2013-11-15,58,54,52,53,47,-100,90,84,77,30.25,30.04,13,10,29,0.00
2013-11-16,53,52,50,49,46,42,90,78,70,30.29,30.23,10,6,22,0.00
2013-11-17,53,50,44,44,42,41,90,77,64,30.26,30.19,7,3,15,0.00
2013-11-18,55,49,44,48,44,-100,92,83,70,30.24,30.19,8,3,17,0.00
2013-11-19,60,51,47,50,45,-100,94,83,68,30.22,30.10,4,1,8,0.00
2013-11-20,69,59,48,53,44,-100,95,61,42,30.10,29.94,5,1,12,0.00
2013-11-21,68,62,57,55,53,49,84,71,60,29.94,29.85,8,2,20,0.01
2013-11-22,67,61,57,55,54,52,94,78,58,29.86,29.75,8,2,20,0.19
2013-11-23,68,58,55,57,52,-100,95,81,55,29.91,29.84,5,1,14,0.00
2013-11-24,68,62,55,54,51,48,89,69,53,29.89,29.76,5,1,15,0.00
2013-11-25,66,56,54,54,46,-100,92,77,52,29.82,29.74,10,4,24,0.45
2013-11-26,56,54,52,53,52,51,96,94,85,29.88,29.77,3,1,6,0.36
2013-11-27,58,53,49,54,50,-100,98,93,86,30.17,29.88,7,2,16,0.28
2013-11-28,51,45,42,50,43,40,95,91,86,30.34,30.18,11,5,22,0.20
2013-11-29,50,44,39,40,36,32,91,75,50,30.23,30.11,5,2,11,0.01
2013-11-30,54,44,35,39,36,33,94,75,48,30.26,30.21,4,1,9,0.00
2013-12-1,56,50,44,47,43,38,86,76,58,30.26,30.17,6,2,11,0.00
2013-12-2,53,50,46,50,47,41,94,89,71,30.35,30.10,10,5,22,0.40
2013-12-3,48,43,41,41,32,29,77,65,60,30.52,30.36,14,10,29,0.00
2013-12-4,46,44,42,39,33,-100,76,69,65,30.38,30.12,11,7,24,0.00
2013-12-5,51,45,44,42,35,-100,81,72,69,30.16,30.05,6,2,12,0.00
2013-12-6,53,47,38,46,39,33,90,74,47,30.15,29.84,11,4,20,0.01
2013-12-7,50,41,36,45,33,-100,93,76,56,30.19,29.90,6,3,17,1.11
2013-12-8,44,39,34,35,22,16,79,51,33,30.40,30.19,7,4,20,0.00
2013-12-9,49,44,36,42,35,30,91,74,55,30.42,30.11,10,5,20,0.02
2013-12-10,49,40,32,43,34,-100,94,84,67,30.44,30.08,14,8,31,0.44
2013-12-11,37,34,31,34,30,-100,96,88,72,30.51,30.42,16,10,39,0.02
2013-12-12,37,34,32,34,32,30,96,92,78,30.44,30.28,4,1,11,0.03
2013-12-13,39,35,34,37,30,-100,95,89,89,30.28,30.17,5,2,10,0.09
2013-12-14,45,42,37,40,38,35,95,86,76,30.43,30.22,6,3,15,0.07
2013-12-15,51,42,38,39,33,-100,93,76,59,30.44,30.41,4,1,10,0.05
2013-12-16,45,41,37,43,40,36,96,95,93,30.52,30.42,9,4,22,0.02
2013-12-17,47,45,42,43,41,38,95,86,72,30.54,30.46,10,6,19,0.15
2013-12-18,49,46,44,43,40,37,91,80,69,30.45,30.33,9,5,21,0.28
2013-12-19,47,43,38,39,34,-100,86,75,65,30.34,30.28,5,1,11,0.09
2013-12-20,51,42,35,39,34,-100,92,75,57,30.48,30.33,5,1,11,0.11
2013-12-21,51,45,39,43,40,37,95,84,72,30.60,30.48,5,2,11,0.07
2013-12-22,47,42,37,43,40,36,97,92,82,30.61,30.48,6,1,13,0.06
2013-12-23,49,39,32,40,33,-100,97,84,53,30.47,30.36,2,0,7,0.38
2013-12-24,54,41,34,42,30,-100,96,78,38,30.40,30.33,4,0,8,0.04
2013-12-25,58,46,40,41,37,30,91,72,39,30.34,30.16,2,0,7,0.00
2013-12-26,59,49,38,38,35,32,91,61,41,30.16,30.06,4,1,9,0.00
2013-12-27,59,54,50,38,35,32,58,49,41,30.08,30.04,5,1,11,0.00
2013-12-28,57,48,45,46,39,-100,94,75,52,30.07,30.00,5,2,12,0.00
2013-12-29,49,48,47,46,45,44,93,90,86,30.18,30.02,8,5,17,0.00
2013-12-30,47,46,44,45,42,40,92,87,82,30.28,30.15,9,6,20,0.00
2013-12-31,44,42,41,42,40,39,95,91,85,30.32,30.27,8,5,18,0.00
2014-1-1,45,44,43,43,42,40,95,92,87,30.28,30.22,5,3,10,0.00
2014-1-2,48,43,41,43,37,-100,93,86,77,30.22,30.15,6,2,13,0.00